Ocean1c’s ATC Tracking Thread - [CLOSED] @ N/A PRACTICAL TODAY

Status - CLOSED

Airport -
Server - Training Server

LD RW -
DP RW -

Winds - 26005MPS

NOTAM - Feedback appreciated :)))

5 Likes

Closed for now

Will be open later today

1 Like

Ill come by when I can!

1 Like

Status - OPEN

Airport - RKSI
Server - Training Server

LD RW - 34 and 33L
DP RW - 33R

WINDS - 13kt @ 260

1 Like

Closed for now

1 Like

Status - OPEN

Airport - MMUN
Server - Training Server

LD RW - 12R
DP RW - 12R and 30R

METAR - MMUN 080742Z 00000KT 7SM FEW015 23/23 A2996 RMK 8/500

NOTAM - Practical test soon

2 Likes

Sure, I’ll hop in a TBM

1 Like

It was overall good, but I thought that the “exit runway” fallout was a bit late

1 Like

Wasn’t sure what you wanted to do didn’t expect you to land after one pattern but thanks for feedback

2 Likes

You can check my speed ;)

1 Like

True:)) thanks will keep in mind

2 Likes

Closed thanks to everyone who came by

2 Likes

Good day! i was flying with you few minutes ago. IT163 my call sign.

few things you have to be carefully

  • transition was wrong to me and to other plane caming later. the minimum trasntion is 2500ft above aerodrome level and in that case 2500ft not 2000ft as given.
  • you did good with my miss alignment when i ask the first runway change
  • i taxi trough grass two times but you notice it (or report it) only the second time
  • i start taxi after pusjback without clearance and then you give immediately the clerance but correct command was “wait clearance before taxi”
  • when i ask the runway change with the other plane in my opinion the best option was to change the sequence and give to me the n1 as quicker plane and in any case when you see one plane cutting the line be carefully and see if it is better to re sequence
  • be little quicker when give command

for the rest the pattern enty after runway change was correct and also the clearance given.

keep attention on what i told you because some of that issue you have to deal during test. good luck! :)

1 Like

Thanks alot for your feedback

1 Like

Status - OPEN

Airport - UHMM
Server - Training Server

LD RW - 28
DP RW - 28

METAR - UHMM 081000Z 32002MPS 9999 NSC M08/M15 Q1014 R10/91/65 NOSIG RMK QFE746

NOTAM - Practical test soon

1 Like

How many hours till ur practical

Should be 2000Z

1 Like

Might as well drop by now

:) see ya soon

1 Like

Just a question why don’t you open in KATL or LFPG because when you pass that test (hopefully wish you the best of luck) you will be an atc for big airports